Alta, Wyoming
Current Conditions -  °F | °C
As of 4:56 PM on Thursday 27 Nov 2014 (Local Time) from KDIJ Reporting Station
Few Clouds Few Clouds  
Wind Chill:   Ceiling: Unl
Heat Index:   Visibility: 10mi
Dew Point: -2°   Wind: 8mph
Humidity: 61%   Direction: 150°SSE
Pressure: 30.17"   Gusts: NA
Location:  43.77°N, 110.98°W
Report Text: KDIJ 272356Z AUTO 15007KT 10SM FEW080 06/M02 A3017 RMK AO2 58007 T00551016 10088 20055 SLP186
Loading
Personal Weather Stations






























Interactive Weather Map New forecast layout! Learn more

10-Day Weather Forecast

Advertisements
Track Severe Weather on mobile